createdAt,value
2023-03-22T00:00:18.879Z,101049.40
2023-03-22T00:01:21.531Z,101054.59
2023-03-22T00:02:23.416Z,101044.10
2023-03-22T00:03:25.146Z,101044.10
2023-03-22T00:04:26.983Z,101046.77
2023-03-22T00:05:28.778Z,101048.47
2023-03-22T00:06:30.589Z,101048.47
2023-03-22T00:07:32.379Z,101048.39
2023-03-22T00:08:34.180Z,101049.25
2023-03-22T00:09:36.028Z,101045.77
2023-03-22T00:10:38.238Z,101044.90
2023-03-22T00:11:40.244Z,101044.90
2023-03-22T00:12:42.061Z,101048.32
2023-03-22T00:13:43.846Z,101046.59
2023-03-22T00:14:45.674Z,101046.59
2023-03-22T00:15:47.487Z,101042.23
2023-03-22T00:16:49.467Z,101044.03
2023-03-22T00:17:51.284Z,101045.73
2023-03-22T00:18:53.101Z,101039.67
2023-03-22T00:19:54.986Z,101042.23
2023-03-22T00:20:56.798Z,101043.95
2023-03-22T00:21:58.604Z,101044.79
2023-03-22T00:23:00.418Z,101038.77
2023-03-22T00:24:02.219Z,101047.37
2023-03-22T00:25:04.051Z,101043.02
2023-03-22T00:26:06.271Z,101044.75
2023-03-22T00:27:08.069Z,101049.94
2023-03-22T00:28:09.866Z,101051.66
2023-03-22T00:29:11.674Z,101050.77
2023-03-22T00:30:13.529Z,101050.77
2023-03-22T00:31:15.349Z,101062.04
2023-03-22T00:32:17.145Z,101059.44
2023-03-22T00:33:18.954Z,101054.26
2023-03-22T00:34:20.753Z,101051.66
2023-03-22T00:35:22.625Z,101056.85
2023-03-22T00:36:24.420Z,101056.85
2023-03-22T00:37:26.207Z,101049.03
2023-03-22T00:38:41.414Z,101052.49
2023-03-22T00:39:31.649Z,101051.63
2023-03-22T00:40:33.500Z,101049.90
2023-03-22T00:41:35.286Z,101051.63
2023-03-22T00:42:37.092Z,101051.59
2023-03-22T00:43:38.890Z,101047.27
2023-03-22T00:44:40.713Z,101051.59
2023-03-22T00:45:42.471Z,101049.86
2023-03-22T00:46:44.261Z,101049.90
2023-03-22T00:47:46.146Z,101048.17
2023-03-22T00:48:48.115Z,101050.77
2023-03-22T00:49:49.920Z,101047.31
2023-03-22T00:50:51.740Z,101046.44
2023-03-22T00:51:53.529Z,101049.07
2023-03-22T00:52:55.340Z,101049.90
2023-03-22T00:53:57.167Z,101049.07
2023-03-22T00:54:58.966Z,101051.66
2023-03-22T00:56:00.815Z,101043.89
2023-03-22T00:57:02.609Z,101045.61
2023-03-22T00:58:04.409Z,101043.89
2023-03-22T00:59:06.217Z,101041.30
2023-03-22T01:00:08.116Z,101043.89
2023-03-22T01:01:10.069Z,101042.98
2023-03-22T01:02:11.810Z,101045.58
2023-03-22T01:03:13.665Z,101039.49
2023-03-22T01:04:15.452Z,101036.94
2023-03-22T01:05:17.119Z,101039.53
2023-03-22T01:06:19.022Z,101039.53
2023-03-22T01:07:20.814Z,101036.94
2023-03-22T01:08:22.720Z,101035.20
2023-03-22T01:09:24.527Z,101039.53
2023-03-22T01:10:26.318Z,101039.53
2023-03-22T01:11:28.169Z,101042.95
2023-03-22T01:12:29.967Z,101044.67
2023-03-22T01:13:31.780Z,101042.08
2023-03-22T01:14:33.570Z,101040.31
2023-03-22T01:15:35.379Z,101041.15
2023-03-22T01:16:37.264Z,101042.05
2023-03-22T01:17:39.133Z,101042.88
2023-03-22T01:18:40.925Z,101037.69
2023-03-22T01:19:42.721Z,101042.88
2023-03-22T01:20:44.528Z,101047.20
2023-03-22T01:21:46.379Z,101049.78
2023-03-22T01:22:48.175Z,101048.06
2023-03-22T01:23:49.970Z,101045.43
2023-03-22T01:24:51.773Z,101047.98
2023-03-22T01:25:53.565Z,101046.22
2023-03-22T01:26:55.414Z,101050.54
2023-03-22T01:27:57.233Z,101050.54
2023-03-22T01:28:59.026Z,101054.86
2023-03-22T01:30:00.830Z,101052.27
2023-03-22T01:31:02.789Z,101048.78
2023-03-22T01:32:04.704Z,101049.67
2023-03-22T01:33:06.504Z,101051.41
2023-03-22T01:34:08.299Z,101051.41
2023-03-22T01:35:10.119Z,101048.81
2023-03-22T01:36:12.370Z,101041.03
2023-03-22T01:37:14.179Z,101047.95
2023-03-22T01:38:15.982Z,101051.41
2023-03-22T01:39:17.681Z,101044.48
2023-03-22T01:40:19.493Z,101047.95
2023-03-22T01:41:21.284Z,101045.32
2023-03-22T01:42:23.111Z,101047.08
2023-03-22T01:43:24.937Z,101053.13
2023-03-22T01:44:26.737Z,101047.08
2023-03-22T01:45:28.539Z,101047.91
2023-03-22T01:46:30.476Z,101049.67
2023-03-22T01:47:32.373Z,101047.05
2023-03-22T01:48:34.222Z,101049.64
2023-03-22T01:49:35.991Z,101045.32
2023-03-22T01:50:37.980Z,101041.86
2023-03-22T01:51:40.450Z,101050.50
2023-03-22T01:52:43.474Z,101050.54
2023-03-22T01:53:45.269Z,101051.41
2023-03-22T01:54:47.069Z,101053.21
2023-03-22T01:55:48.866Z,101058.39
2023-03-22T01:56:50.679Z,101057.56
2023-03-22T01:57:52.535Z,101060.20
2023-03-22T01:58:54.324Z,101058.47
2023-03-22T01:59:56.122Z,101057.64
2023-03-22T02:00:57.920Z,101053.33
2023-03-22T02:01:59.740Z,101062.87
2023-03-22T02:03:01.637Z,101059.44
2023-03-22T02:04:03.553Z,101065.50
2023-03-22T02:05:05.356Z,101067.27
2023-03-22T02:06:07.459Z,101069.86
2023-03-22T02:07:09.269Z,101066.41
2023-03-22T02:08:11.113Z,101072.48
2023-03-22T02:09:12.936Z,101067.27
2023-03-22T02:10:14.857Z,101071.59
2023-03-22T02:11:16.652Z,101072.48
2023-03-22T02:12:18.453Z,101072.48
2023-03-22T02:13:20.302Z,101069.89
2023-03-22T02:14:23.433Z,101064.67
2023-03-22T02:15:25.459Z,101060.34
2023-03-22T02:16:27.280Z,101065.50
2023-03-22T02:17:29.086Z,101067.22
2023-03-22T02:18:30.932Z,101063.73
2023-03-22T02:19:32.741Z,101063.73
2023-03-22T02:20:34.652Z,101062.80
2023-03-22T02:21:36.463Z,101068.84
2023-03-22T02:22:38.292Z,101071.40
2023-03-22T02:23:40.136Z,101070.57
2023-03-22T02:24:43.933Z,101076.59
2023-03-22T02:25:45.460Z,101071.36
2023-03-22T02:26:47.394Z,101070.50
2023-03-22T02:27:49.175Z,101072.19
2023-03-22T02:28:51.030Z,101071.33
2023-03-22T02:29:52.833Z,101074.74
2023-03-22T02:30:54.676Z,101081.66
2023-03-22T02:31:56.456Z,101070.42
2023-03-22T02:32:58.254Z,101075.61
2023-03-22T02:34:00.104Z,101076.47
2023-03-22T02:35:01.927Z,101078.23
2023-03-22T02:36:03.729Z,101073.91
2023-03-22T02:37:05.561Z,101067.00
2023-03-22T02:38:07.370Z,101070.50
2023-03-22T02:39:09.205Z,101072.23
2023-03-22T02:40:11.523Z,101077.41
2023-03-22T02:41:13.328Z,101077.45
2023-03-22T02:42:15.131Z,101085.23
2023-03-22T02:43:16.939Z,101074.86
2023-03-22T02:44:18.763Z,101087.03
2023-03-22T02:45:20.610Z,101077.52
2023-03-22T02:46:22.511Z,101081.84
2023-03-22T02:47:24.295Z,101085.34
2023-03-22T02:48:26.197Z,101092.26
2023-03-22T02:49:28.066Z,101085.34
2023-03-22T02:50:29.867Z,101087.03
2023-03-22T02:51:31.680Z,101084.41
2023-03-22T02:52:33.499Z,101088.72
2023-03-22T02:53:35.299Z,101090.42
2023-03-22T02:54:37.132Z,101086.95
2023-03-22T02:55:38.962Z,101089.55
2023-03-22T02:56:40.787Z,101087.78
2023-03-22T02:57:42.610Z,101085.19
2023-03-22T02:58:44.411Z,101092.11
2023-03-22T02:59:46.262Z,101097.29
2023-03-22T03:00:48.086Z,101092.06
2023-03-22T03:01:49.983Z,101092.03
2023-03-22T03:02:51.801Z,101090.27
2023-03-22T03:03:53.614Z,101090.27
2023-03-22T03:04:55.468Z,101096.31
2023-03-22T03:05:57.275Z,101094.55
2023-03-22T03:06:59.084Z,101096.27
2023-03-22T03:08:00.886Z,101104.05
2023-03-22T03:09:02.725Z,101094.50
2023-03-22T03:10:04.545Z,101094.50
2023-03-22T03:11:06.360Z,101091.91
2023-03-22T03:12:08.160Z,101094.50
2023-03-22T03:13:09.969Z,101091.91
2023-03-22T03:14:11.983Z,101088.41
2023-03-22T03:15:13.837Z,101087.52
2023-03-22T03:16:15.946Z,101090.97
2023-03-22T03:17:17.735Z,101089.20
2023-03-22T03:18:19.575Z,101092.58
2023-03-22T03:19:21.387Z,101089.95
2023-03-22T03:20:23.532Z,101088.18
2023-03-22T03:21:25.802Z,101090.77
2023-03-22T03:22:27.636Z,101095.02
2023-03-22T03:23:29.451Z,101088.11
2023-03-22T03:24:31.265Z,101093.25
2023-03-22T03:25:33.150Z,101090.62
2023-03-22T03:26:34.974Z,101093.17
2023-03-22T03:27:36.857Z,101091.44
2023-03-22T03:28:38.666Z,101097.45
2023-03-22T03:29:40.475Z,101089.62
2023-03-22T03:30:42.315Z,101095.60
2023-03-22T03:31:44.199Z,101091.27
2023-03-22T03:32:46.044Z,101095.52
2023-03-22T03:33:47.829Z,101098.07
2023-03-22T03:34:49.726Z,101096.34
2023-03-22T03:35:51.610Z,101100.58
2023-03-22T03:36:53.429Z,101100.54
2023-03-22T03:37:55.223Z,101103.09
2023-03-22T03:38:57.036Z,101099.59
2023-03-22T03:39:58.830Z,101097.83
2023-03-22T03:41:00.679Z,101097.83
2023-03-22T03:42:02.504Z,101096.06
2023-03-22T03:43:04.296Z,101100.33
2023-03-22T03:44:06.096Z,101102.05
2023-03-22T03:45:07.900Z,101104.61
2023-03-22T03:46:09.905Z,101102.02
2023-03-22T03:47:11.651Z,101106.34
2023-03-22T03:48:13.510Z,101107.23
2023-03-22T03:49:15.423Z,101102.92
2023-03-22T03:50:17.662Z,101106.42
2023-03-22T03:51:19.492Z,101101.24
2023-03-22T03:52:21.305Z,101106.42
2023-03-22T03:53:23.170Z,101101.24
2023-03-22T03:54:24.991Z,101105.59
2023-03-22T03:55:26.783Z,101111.61
2023-03-22T03:56:28.748Z,101109.05
2023-03-22T03:57:30.557Z,101105.59
2023-03-22T03:58:32.479Z,101105.59
2023-03-22T03:59:34.265Z,101110.78
2023-03-22T04:00:36.079Z,101106.46
2023-03-22T04:01:37.939Z,101110.78
2023-03-22T04:02:39.838Z,101108.19
2023-03-22T04:03:41.659Z,101107.36
2023-03-22T04:04:43.511Z,101111.65
2023-03-22T04:05:45.290Z,101105.59
2023-03-22T04:06:47.241Z,101103.88
2023-03-22T04:07:49.046Z,101106.46
2023-03-22T04:08:50.867Z,101113.38
2023-03-22T04:09:52.690Z,101110.78
2023-03-22T04:10:54.589Z,101112.50
2023-03-22T04:11:56.438Z,101115.09
2023-03-22T04:12:58.245Z,101118.52
2023-03-22T04:14:00.078Z,101122.78
2023-03-22T04:15:01.873Z,101128.80
2023-03-22T04:16:03.677Z,101121.84
2023-03-22T04:17:05.505Z,101124.39
2023-03-22T04:18:07.315Z,101123.56
2023-03-22T04:19:09.112Z,101127.92
2023-03-22T04:20:11.737Z,101123.61
2023-03-22T04:21:13.521Z,101130.56
2023-03-22T04:22:15.352Z,101127.11
2023-03-22T04:23:17.186Z,101128.05
2023-03-22T04:24:18.979Z,101134.14
2023-03-22T04:25:21.773Z,101127.23
2023-03-22T04:26:26.177Z,101135.95
2023-03-22T04:27:27.228Z,101127.35
2023-03-22T04:28:29.024Z,101133.45
2023-03-22T04:29:30.832Z,101129.17
2023-03-22T04:30:32.625Z,101136.16
2023-03-22T04:31:34.429Z,101137.93
2023-03-22T04:32:36.266Z,101131.89
2023-03-22T04:33:38.097Z,101135.42
2023-03-22T04:34:39.903Z,101128.52
2023-03-22T04:35:41.724Z,101139.78
2023-03-22T04:36:43.506Z,101133.78
2023-03-22T04:37:45.354Z,101132.95
2023-03-22T04:38:47.159Z,101132.13
2023-03-22T04:39:48.952Z,101130.44
2023-03-22T04:40:50.855Z,101136.48
2023-03-22T04:41:52.660Z,101134.84
2023-03-22T04:42:54.552Z,101138.34
2023-03-22T04:43:56.362Z,101139.20
2023-03-22T04:44:58.155Z,101139.28
2023-03-22T04:46:00.004Z,101136.73
2023-03-22T04:47:01.793Z,101134.22
2023-03-22T04:48:03.673Z,101134.30
2023-03-22T04:49:05.431Z,101135.28
2023-03-22T04:50:07.648Z,101137.05
2023-03-22T04:51:09.450Z,101138.07
2023-03-22T04:52:11.241Z,101138.98
2023-03-22T04:53:13.071Z,101143.41
2023-03-22T04:54:14.884Z,101140.07
2023-03-22T04:55:16.703Z,101141.02
2023-03-22T04:56:18.502Z,101137.67
2023-03-22T04:57:20.306Z,101136.88
2023-03-22T04:58:22.169Z,101144.73
2023-03-22T04:59:23.938Z,101144.81
2023-03-22T05:00:25.745Z,101146.58
2023-03-22T05:01:27.621Z,101147.55
2023-03-22T05:02:29.461Z,101145.03
2023-03-22T05:03:31.289Z,101147.67
2023-03-22T05:04:32.990Z,101149.47
2023-03-22T05:05:34.816Z,101152.21
2023-03-22T05:06:36.602Z,101149.69
2023-03-22T05:07:38.395Z,101148.90
2023-03-22T05:08:40.230Z,101152.47
2023-03-22T05:09:42.056Z,101155.17
2023-03-22T05:10:43.858Z,101152.68
2023-03-22T05:11:45.684Z,101148.42
2023-03-22T05:12:47.486Z,101158.05
2023-03-22T05:13:49.324Z,101149.50
2023-03-22T05:14:51.164Z,101159.95
2023-03-22T05:15:52.994Z,101156.53
2023-03-22T05:16:54.847Z,101160.92
2023-03-22T05:17:56.633Z,101159.27
2023-03-22T05:18:58.475Z,101155.87
2023-03-22T05:20:00.281Z,101152.50
2023-03-22T05:21:02.094Z,101151.70
2023-03-22T05:22:03.880Z,101155.23
2023-03-22T05:23:05.576Z,101156.17
2023-03-22T05:24:07.415Z,101163.20
2023-03-22T05:25:09.222Z,101153.70
2023-03-22T05:26:11.342Z,101155.53
2023-03-22T05:27:13.130Z,101158.20
2023-03-22T05:28:14.928Z,101166.09
2023-03-22T05:29:16.785Z,101158.36
2023-03-22T05:30:18.703Z,101162.78
2023-03-22T05:31:20.546Z,101159.41
2023-03-22T05:32:22.298Z,101166.47
2023-03-22T05:33:24.130Z,101165.66
2023-03-22T05:34:25.959Z,101164.05
2023-03-22T05:35:27.761Z,101168.44
2023-03-22T05:36:29.562Z,101165.09
2023-03-22T05:37:31.358Z,101170.39
2023-03-22T05:38:33.176Z,101172.21
2023-03-22T05:39:35.021Z,101170.56
2023-03-22T05:40:36.833Z,101171.55
2023-03-22T05:41:38.628Z,101170.80
2023-03-22T05:42:40.431Z,101170.92
2023-03-22T05:43:42.243Z,101168.42
2023-03-22T05:44:44.097Z,101170.24
2023-03-22T05:45:46.014Z,101172.98
2023-03-22T05:46:47.835Z,101173.06
2023-03-22T05:47:51.546Z,101173.17
2023-03-22T05:48:53.208Z,101181.06
2023-03-22T05:49:55.056Z,101174.19
2023-03-22T05:50:57.172Z,101179.42
2023-03-22T05:51:58.975Z,101176.90
2023-03-22T05:53:00.797Z,101174.38
2023-03-22T05:54:02.618Z,101177.05
2023-03-22T05:55:04.483Z,101172.81
2023-03-22T05:56:06.608Z,101171.12
2023-03-22T05:57:08.419Z,101172.94
2023-03-22T05:58:10.211Z,101166.94
2023-03-22T05:59:12.017Z,101167.00
2023-03-22T06:00:13.859Z,101173.15
2023-03-22T06:01:15.680Z,101175.84
2023-03-22T06:02:17.564Z,101175.05
2023-03-22T06:03:19.406Z,101175.09
2023-03-22T06:04:21.193Z,101177.77
2023-03-22T06:05:23.335Z,101173.46
2023-03-22T06:06:25.162Z,101175.27
2023-03-22T06:07:26.961Z,101172.73
2023-03-22T06:08:28.772Z,101175.40
2023-03-22T06:09:30.590Z,101178.94
2023-03-22T06:10:32.622Z,101172.95
2023-03-22T06:11:34.430Z,101176.48
2023-03-22T06:12:36.236Z,101172.20
2023-03-22T06:13:38.052Z,101174.00
2023-03-22T06:14:39.839Z,101171.44
2023-03-22T06:15:41.682Z,101177.57
2023-03-22T06:16:43.499Z,101176.77
2023-03-22T06:17:45.289Z,101172.50
2023-03-22T06:18:47.102Z,101175.16
2023-03-22T06:19:48.893Z,101181.30
2023-03-22T06:20:51.047Z,101180.48
2023-03-22T06:21:52.908Z,101181.39
2023-03-22T06:22:54.738Z,101173.61
2023-03-22T06:23:56.539Z,101184.98
2023-03-22T06:24:58.360Z,101182.41
2023-03-22T06:26:00.260Z,101179.84
2023-03-22T06:27:02.079Z,101183.34
2023-03-22T06:28:03.885Z,101179.02
2023-03-22T06:29:05.685Z,101180.80
2023-03-22T06:30:07.797Z,101179.11
2023-03-22T06:31:09.688Z,101175.65
2023-03-22T06:32:11.545Z,101176.58
2023-03-22T06:33:13.349Z,101180.95
2023-03-22T06:34:15.212Z,101178.36
2023-03-22T06:35:17.065Z,101181.90
2023-03-22T06:36:19.049Z,101180.19
2023-03-22T06:37:20.867Z,101179.34
2023-03-22T06:38:22.660Z,101176.75
2023-03-22T06:39:24.469Z,101179.39
2023-03-22T06:40:26.297Z,101175.06
2023-03-22T06:41:28.247Z,101180.30
2023-03-22T06:42:30.062Z,101185.54
2023-03-22T06:43:31.757Z,101182.99
2023-03-22T06:44:33.637Z,101183.91
2023-03-22T06:45:35.423Z,101187.41
2023-03-22T06:46:37.421Z,101182.20
2023-03-22T06:47:39.237Z,101187.45
2023-03-22T06:48:41.033Z,101188.38
2023-03-22T06:49:42.868Z,101188.39
2023-03-22T06:50:44.862Z,101179.67
2023-03-22T06:51:46.931Z,101179.68
2023-03-22T06:52:48.728Z,101184.91
2023-03-22T06:53:50.572Z,101184.06
2023-03-22T06:54:52.381Z,101181.46
2023-03-22T06:55:55.430Z,101181.47
2023-03-22T06:56:57.556Z,101183.23
2023-03-22T06:57:59.385Z,101184.11
2023-03-22T06:59:01.190Z,101185.02
2023-03-22T07:00:03.091Z,101188.49
2023-03-22T07:01:04.932Z,101185.91
2023-03-22T07:02:06.811Z,101187.66
2023-03-22T07:03:08.644Z,101192.00
2023-03-22T07:04:10.500Z,101192.02
2023-03-22T07:05:12.271Z,101196.39
2023-03-22T07:06:14.186Z,101191.17
2023-03-22T07:07:16.022Z,101192.94
2023-03-22T07:08:17.852Z,101193.80
2023-03-22T07:09:19.693Z,101190.34
2023-03-22T07:10:21.556Z,101186.85
2023-03-22T07:11:23.401Z,101190.38
2023-03-22T07:12:25.259Z,101192.14
2023-03-22T07:13:27.388Z,101191.27
2023-03-22T07:14:29.816Z,101198.26
2023-03-22T07:15:32.155Z,101194.80
2023-03-22T07:16:34.059Z,101196.53
2023-03-22T07:17:35.878Z,101193.07
2023-03-22T07:18:37.829Z,101191.35
2023-03-22T07:19:39.665Z,101191.35
2023-03-22T07:20:41.901Z,101189.65
2023-03-22T07:21:43.813Z,101187.05
2023-03-22T07:22:45.665Z,101197.53
2023-03-22T07:23:47.481Z,101192.31
2023-03-22T07:24:56.512Z,101187.10
2023-03-22T07:25:52.905Z,101191.48
2023-03-22T07:26:54.817Z,101185.38
2023-03-22T07:27:56.667Z,101183.66
2023-03-22T07:28:58.477Z,101188.90
2023-03-22T07:30:00.296Z,101187.16
2023-03-22T07:31:02.104Z,101192.40
2023-03-22T07:32:04.030Z,101188.07
2023-03-22T07:33:05.892Z,101188.09
2023-03-22T07:34:07.756Z,101193.33
2023-03-22T07:35:09.570Z,101193.33
2023-03-22T07:36:11.536Z,101192.45
2023-03-22T07:37:13.322Z,101186.39
2023-03-22T07:38:16.337Z,101192.49
2023-03-22T07:39:18.132Z,101192.50
2023-03-22T07:40:20.006Z,101190.78
2023-03-22T07:41:21.816Z,101196.02
2023-03-22T07:42:23.738Z,101193.39
2023-03-22T07:43:25.568Z,101194.27
2023-03-22T07:44:27.373Z,101191.66
2023-03-22T07:45:29.218Z,101193.41
2023-03-22T07:46:31.112Z,101196.89
2023-03-22T07:47:40.687Z,101195.18
2023-03-22T07:48:36.543Z,101202.14
2023-03-22T07:49:38.341Z,101188.20
2023-03-22T07:50:40.644Z,101196.91
2023-03-22T07:51:42.815Z,101191.69
2023-03-22T07:52:44.609Z,101194.30
2023-03-22T07:53:46.448Z,101196.93
2023-03-22T07:54:48.235Z,101197.83
2023-03-22T07:55:50.045Z,101200.45
2023-03-22T07:56:51.851Z,101187.38
2023-03-22T07:57:53.709Z,101189.09
2023-03-22T07:58:55.581Z,101185.63
2023-03-22T07:59:57.483Z,101193.48
2023-03-22T08:00:59.365Z,101193.48
2023-03-22T08:02:01.416Z,101188.25
2023-03-22T08:03:03.358Z,101190.02
2023-03-22T08:04:05.330Z,101186.54
2023-03-22T08:05:07.104Z,101194.39
2023-03-22T08:06:09.819Z,101191.78
2023-03-22T08:07:11.624Z,101186.55
2023-03-22T08:08:13.436Z,101189.17
2023-03-22T08:09:15.267Z,101182.19
2023-03-22T08:10:17.199Z,101184.80
2023-03-22T08:11:18.996Z,101185.67
2023-03-22T08:12:20.798Z,101182.20
2023-03-22T08:13:22.626Z,101186.58
2023-03-22T08:14:34.056Z,101185.69
2023-03-22T08:15:28.135Z,101185.69
2023-03-22T08:16:30.016Z,101183.97
2023-03-22T08:17:31.862Z,101186.59
2023-03-22T08:18:33.701Z,101184.84
2023-03-22T08:19:35.512Z,101183.12
2023-03-22T08:20:37.302Z,101183.12
2023-03-22T08:21:39.224Z,101184.84
2023-03-22T08:22:41.191Z,101181.37
2023-03-22T08:23:42.975Z,101183.98
2023-03-22T08:24:44.938Z,101192.70
2023-03-22T08:25:46.726Z,101187.47
2023-03-22T08:26:48.732Z,101187.48
2023-03-22T08:27:50.538Z,101187.48
2023-03-22T08:28:52.361Z,101187.52
2023-03-22T08:29:54.220Z,101188.38
2023-03-22T08:30:56.055Z,101189.23
2023-03-22T08:31:57.979Z,101190.13
2023-03-22T08:32:59.849Z,101188.38
2023-03-22T08:34:01.652Z,101191.00
2023-03-22T08:35:03.504Z,101191.00
2023-03-22T08:36:05.408Z,101191.86
2023-03-22T08:37:07.211Z,101191.86
2023-03-22T08:38:09.042Z,101189.24
2023-03-22T08:39:10.880Z,101191.00
2023-03-22T08:40:12.868Z,101185.77
2023-03-22T08:41:14.708Z,101186.63
2023-03-22T08:42:16.531Z,101185.77
2023-03-22T08:43:18.360Z,101186.63
2023-03-22T08:44:20.167Z,101177.91
2023-03-22T08:45:21.988Z,101189.28
2023-03-22T08:46:23.799Z,101191.03
2023-03-22T08:47:25.681Z,101184.93
2023-03-22T08:48:27.508Z,101184.07
2023-03-22T08:49:29.366Z,101186.69
2023-03-22T08:50:31.196Z,101190.17
2023-03-22T08:51:33.002Z,101184.93
2023-03-22T08:52:34.805Z,101186.69
2023-03-22T08:53:36.595Z,101182.31
2023-03-22T08:54:38.411Z,101178.83
2023-03-22T08:55:40.455Z,101184.06
2023-03-22T08:56:42.445Z,101178.83
2023-03-22T08:57:44.249Z,101179.69
2023-03-22T08:58:46.058Z,101181.44
2023-03-22T08:59:47.867Z,101182.30
2023-03-22T09:00:50.130Z,101174.44
2023-03-22T09:01:52.114Z,101179.68
2023-03-22T09:02:53.926Z,101184.91
2023-03-22T09:03:55.724Z,101184.05
2023-03-22T09:04:57.548Z,101183.19
2023-03-22T09:05:59.401Z,101186.67
2023-03-22T09:07:01.349Z,101182.29
2023-03-22T09:08:06.546Z,101184.05
2023-03-22T09:09:06.789Z,101184.91
2023-03-22T09:10:08.708Z,101181.42
2023-03-22T09:11:10.564Z,101184.05
2023-03-22T09:12:12.396Z,101178.80
2023-03-22T09:13:14.192Z,101177.94
2023-03-22T09:14:15.996Z,101189.28
2023-03-22T09:15:17.832Z,101183.17
2023-03-22T09:16:19.757Z,101176.17
2023-03-22T09:17:22.566Z,101181.41
2023-03-22T09:18:24.453Z,101177.92
2023-03-22T09:19:26.249Z,101180.55
2023-03-22T09:20:28.218Z,101176.16
2023-03-22T09:21:30.066Z,101178.78
2023-03-22T09:22:31.885Z,101172.68
2023-03-22T09:23:33.693Z,101174.41
2023-03-22T09:24:35.499Z,101171.79
2023-03-22T09:25:37.296Z,101177.03
2023-03-22T09:26:39.189Z,101172.69
2023-03-22T09:27:41.010Z,101177.04
2023-03-22T09:28:42.876Z,101173.55
2023-03-22T09:29:44.617Z,101173.55
2023-03-22T09:30:46.485Z,101166.55
2023-03-22T09:31:48.394Z,101171.80
2023-03-22T09:32:50.220Z,101171.80
2023-03-22T09:33:51.984Z,101175.30
2023-03-22T09:34:53.802Z,101170.06
2023-03-22T09:35:55.639Z,101176.16
2023-03-22T09:36:58.519Z,101170.91
2023-03-22T09:38:00.405Z,101172.67
2023-03-22T09:39:02.203Z,101175.30
2023-03-22T09:40:04.002Z,101176.16
2023-03-22T09:41:05.806Z,101165.67
2023-03-22T09:42:07.626Z,101169.18
2023-03-22T09:43:09.528Z,101173.53
2023-03-22T09:44:11.326Z,101170.90
2023-03-22T09:45:13.069Z,101168.27
2023-03-22T09:46:15.528Z,101163.92
2023-03-22T09:47:17.463Z,101167.41
2023-03-22T09:48:19.286Z,101165.64
2023-03-22T09:49:21.159Z,101165.63
2023-03-22T09:50:22.949Z,101159.52
2023-03-22T09:51:24.755Z,101167.39
2023-03-22T09:52:26.630Z,101163.91
2023-03-22T09:53:28.410Z,101170.03
2023-03-22T09:54:30.203Z,101163.92
2023-03-22T09:55:32.195Z,101164.78
2023-03-22T09:56:35.113Z,101166.55
2023-03-22T09:57:37.201Z,101167.41
2023-03-22T09:58:39.057Z,101169.16
2023-03-22T09:59:40.842Z,101168.26
2023-03-22T10:00:42.803Z,101168.25
2023-03-22T10:01:44.852Z,101164.77
2023-03-22T10:02:46.885Z,101166.52
2023-03-22T10:03:48.706Z,101165.61
2023-03-22T10:04:50.586Z,101163.89
2023-03-22T10:05:52.393Z,101164.75
2023-03-22T10:06:54.206Z,101158.64
2023-03-22T10:07:56.041Z,101167.36
2023-03-22T10:08:57.849Z,101159.48
2023-03-22T10:09:59.659Z,101163.00
2023-03-22T10:11:01.511Z,101161.24
2023-03-22T10:12:03.162Z,101156.85
2023-03-22T10:13:04.988Z,101151.59
2023-03-22T10:14:06.784Z,101155.12
2023-03-22T10:15:08.646Z,101154.22
2023-03-22T10:16:10.619Z,101155.98
2023-03-22T10:17:12.494Z,101156.84
2023-03-22T10:18:14.318Z,101160.36
2023-03-22T10:19:16.121Z,101164.72
2023-03-22T10:20:17.927Z,101161.22
2023-03-22T10:21:19.764Z,101169.09
2023-03-22T10:22:21.563Z,101163.84
2023-03-22T10:23:23.476Z,101169.09
2023-03-22T10:24:25.383Z,101160.35
2023-03-22T10:25:27.307Z,101165.59
2023-03-22T10:26:29.152Z,101164.70
2023-03-22T10:27:30.919Z,101166.45
2023-03-22T10:28:32.788Z,101166.45
2023-03-22T10:29:34.606Z,101168.21
2023-03-22T10:30:36.419Z,101168.21
2023-03-22T10:31:38.266Z,101161.20
2023-03-22T10:32:54.718Z,101165.59
2023-03-22T10:33:44.550Z,101162.08
2023-03-22T10:34:46.431Z,101156.82
2023-03-22T10:35:48.311Z,101161.20
2023-03-22T10:36:50.114Z,101159.45
2023-03-22T10:37:51.953Z,101162.07
2023-03-22T10:38:53.808Z,101157.72
2023-03-22T10:39:55.615Z,101158.58
2023-03-22T10:40:57.429Z,101154.20
2023-03-22T10:41:59.227Z,101149.84
2023-03-22T10:43:01.059Z,101154.19
2023-03-22T10:44:02.899Z,101148.08
2023-03-22T10:45:04.711Z,101143.70
2023-03-22T10:46:06.793Z,101147.23
2023-03-22T10:47:08.728Z,101144.61
2023-03-22T10:48:10.677Z,101144.61
2023-03-22T10:49:12.442Z,101142.84
2023-03-22T10:50:14.552Z,101136.73
2023-03-22T10:51:16.645Z,101132.36
2023-03-22T10:52:18.450Z,101141.09
2023-03-22T10:53:20.246Z,101139.36
2023-03-22T10:54:22.105Z,101140.23
2023-03-22T10:55:23.902Z,101142.00
2023-03-22T10:56:25.761Z,101138.48
2023-03-22T10:57:27.558Z,101133.23
2023-03-22T10:58:29.370Z,101130.61
2023-03-22T10:59:31.204Z,101127.12
2023-03-22T11:00:33.057Z,101135.86
2023-03-22T11:01:34.900Z,101132.36
2023-03-22T11:02:36.834Z,101126.25
2023-03-22T11:03:38.801Z,101124.50
2023-03-22T11:04:40.595Z,101126.26
2023-03-22T11:05:42.530Z,101120.12
2023-03-22T11:06:44.400Z,101127.13
2023-03-22T11:07:46.190Z,101119.27
2023-03-22T11:08:47.980Z,101120.13
2023-03-22T11:09:49.801Z,101118.41
2023-03-22T11:10:51.980Z,101121.02
2023-03-22T11:11:53.823Z,101121.02
2023-03-22T11:12:55.615Z,101114.00
2023-03-22T11:13:57.411Z,101114.00
2023-03-22T11:14:59.233Z,101118.38
2023-03-22T11:16:01.068Z,101120.12
2023-03-22T11:17:02.816Z,101109.62
2023-03-22T11:18:04.616Z,101109.62
2023-03-22T11:19:06.411Z,101113.15
2023-03-22T11:20:08.257Z,101114.00
2023-03-22T11:21:10.009Z,101109.62
2023-03-22T11:22:11.809Z,101107.90
2023-03-22T11:23:13.606Z,101105.27
2023-03-22T11:24:15.401Z,101107.00
2023-03-22T11:25:17.213Z,101102.66
2023-03-22T11:26:19.044Z,101103.53
2023-03-22T11:27:20.865Z,101101.77
2023-03-22T11:28:22.651Z,101105.27
2023-03-22T11:29:24.530Z,101105.27
2023-03-22T11:30:26.781Z,101098.26
2023-03-22T11:31:28.598Z,101094.77
2023-03-22T11:32:30.467Z,101089.52
2023-03-22T11:33:32.284Z,101091.25
2023-03-22T11:34:34.072Z,101091.26
2023-03-22T11:35:35.918Z,101096.52
2023-03-22T11:36:37.684Z,101090.40
2023-03-22T11:37:39.489Z,101097.40
2023-03-22T11:38:41.275Z,101099.13
2023-03-22T11:39:43.079Z,101094.77
2023-03-22T11:40:44.903Z,101094.76
2023-03-22T11:41:46.687Z,101091.24
2023-03-22T11:42:48.564Z,101092.14
2023-03-22T11:43:51.422Z,101088.62
2023-03-22T11:44:53.761Z,101093.87
2023-03-22T11:45:55.614Z,101087.77